sensor_id;sensor_type;location;lat;lon;timestamp;P1;durP1;ratioP1;P2;durP2;ratioP2
27305;SDS011;14792;50.886;6.468;2022-10-17T00:00:16;9.90;;;6.30;;
27305;SDS011;14792;50.886;6.468;2022-10-17T00:03:17;10.50;;;6.78;;
27305;SDS011;14792;50.886;6.468;2022-10-17T00:06:19;14.07;;;7.15;;
27305;SDS011;14792;50.886;6.468;2022-10-17T00:09:21;15.30;;;6.62;;
27305;SDS011;14792;50.886;6.468;2022-10-17T00:12:23;13.20;;;7.30;;
27305;SDS011;14792;50.886;6.468;2022-10-17T00:15:25;12.47;;;6.72;;
27305;SDS011;14792;50.886;6.468;2022-10-17T00:18:26;9.53;;;6.35;;
27305;SDS011;14792;50.886;6.468;2022-10-17T00:21:28;10.93;;;6.75;;
27305;SDS011;14792;50.886;6.468;2022-10-17T00:24:30;10.18;;;6.62;;
27305;SDS011;14792;50.886;6.468;2022-10-17T00:27:34;10.23;;;6.22;;
27305;SDS011;14792;50.886;6.468;2022-10-17T00:30:35;11.57;;;7.22;;
27305;SDS011;14792;50.886;6.468;2022-10-17T00:33:37;11.35;;;7.50;;
27305;SDS011;14792;50.886;6.468;2022-10-17T00:36:38;13.10;;;7.47;;
27305;SDS011;14792;50.886;6.468;2022-10-17T00:39:40;15.43;;;7.58;;
27305;SDS011;14792;50.886;6.468;2022-10-17T00:42:42;14.47;;;6.95;;
27305;SDS011;14792;50.886;6.468;2022-10-17T00:45:43;10.63;;;7.45;;
27305;SDS011;14792;50.886;6.468;2022-10-17T00:48:45;18.25;;;6.90;;
27305;SDS011;14792;50.886;6.468;2022-10-17T00:51:51;10.88;;;7.80;;
27305;SDS011;14792;50.886;6.468;2022-10-17T00:54:53;11.18;;;6.80;;
27305;SDS011;14792;50.886;6.468;2022-10-17T01:00:54;15.48;;;7.00;;
27305;SDS011;14792;50.886;6.468;2022-10-17T01:03:56;8.38;;;6.92;;
27305;SDS011;14792;50.886;6.468;2022-10-17T01:06:57;9.40;;;7.47;;
27305;SDS011;14792;50.886;6.468;2022-10-17T01:09:59;11.10;;;7.00;;
27305;SDS011;14792;50.886;6.468;2022-10-17T01:22:17;9.40;;;6.67;;
27305;SDS011;14792;50.886;6.468;2022-10-17T01:31:54;13.38;;;7.47;;
27305;SDS011;14792;50.886;6.468;2022-10-17T01:35:08;15.45;;;7.25;;
27305;SDS011;14792;50.886;6.468;2022-10-17T01:38:19;11.93;;;8.05;;
27305;SDS011;14792;50.886;6.468;2022-10-17T01:41:24;14.95;;;7.90;;
27305;SDS011;14792;50.886;6.468;2022-10-17T01:44:35;12.37;;;7.97;;
27305;SDS011;14792;50.886;6.468;2022-10-17T01:47:35;10.40;;;8.15;;
27305;SDS011;14792;50.886;6.468;2022-10-17T01:50:38;13.35;;;7.60;;
27305;SDS011;14792;50.886;6.468;2022-10-17T01:53:40;13.68;;;8.23;;
27305;SDS011;14792;50.886;6.468;2022-10-17T01:56:40;8.60;;;7.55;;
27305;SDS011;14792;50.886;6.468;2022-10-17T01:59:43;11.05;;;7.85;;
27305;SDS011;14792;50.886;6.468;2022-10-17T02:02:44;10.38;;;8.33;;
27305;SDS011;14792;50.886;6.468;2022-10-17T02:05:45;10.95;;;8.33;;
27305;SDS011;14792;50.886;6.468;2022-10-17T02:08:47;14.05;;;8.63;;
27305;SDS011;14792;50.886;6.468;2022-10-17T02:12:02;14.85;;;8.05;;
27305;SDS011;14792;50.886;6.468;2022-10-17T02:24:49;15.18;;;8.30;;
27305;SDS011;14792;50.886;6.468;2022-10-17T02:27:59;10.25;;;8.38;;
27305;SDS011;14792;50.886;6.468;2022-10-17T02:31:03;11.53;;;7.55;;
27305;SDS011;14792;50.886;6.468;2022-10-17T02:34:05;15.18;;;8.40;;
27305;SDS011;14792;50.886;6.468;2022-10-17T02:37:06;11.35;;;7.97;;
27305;SDS011;14792;50.886;6.468;2022-10-17T02:40:07;13.28;;;7.55;;
27305;SDS011;14792;50.886;6.468;2022-10-17T02:43:09;14.58;;;7.30;;
27305;SDS011;14792;50.886;6.468;2022-10-17T02:46:11;12.88;;;7.30;;
27305;SDS011;14792;50.886;6.468;2022-10-17T02:49:16;11.88;;;6.55;;
27305;SDS011;14792;50.886;6.468;2022-10-17T02:52:36;9.93;;;7.17;;
27305;SDS011;14792;50.886;6.468;2022-10-17T02:55:38;14.50;;;6.92;;
27305;SDS011;14792;50.886;6.468;2022-10-17T02:58:38;12.50;;;6.85;;
27305;SDS011;14792;50.886;6.468;2022-10-17T03:01:40;10.90;;;7.37;;
27305;SDS011;14792;50.886;6.468;2022-10-17T03:04:42;11.18;;;7.12;;
27305;SDS011;14792;50.886;6.468;2022-10-17T03:07:43;14.05;;;6.80;;
27305;SDS011;14792;50.886;6.468;2022-10-17T03:10:44;14.98;;;6.97;;
27305;SDS011;14792;50.886;6.468;2022-10-17T03:13:46;14.73;;;6.60;;
27305;SDS011;14792;50.886;6.468;2022-10-17T03:16:48;10.98;;;7.10;;
27305;SDS011;14792;50.886;6.468;2022-10-17T03:19:49;8.30;;;5.85;;
27305;SDS011;14792;50.886;6.468;2022-10-17T03:22:51;11.53;;;6.50;;
27305;SDS011;14792;50.886;6.468;2022-10-17T03:25:53;11.12;;;5.62;;
27305;SDS011;14792;50.886;6.468;2022-10-17T03:28:55;11.08;;;5.25;;
27305;SDS011;14792;50.886;6.468;2022-10-17T03:31:57;8.63;;;5.03;;
27305;SDS011;14792;50.886;6.468;2022-10-17T03:34:58;8.45;;;5.53;;
27305;SDS011;14792;50.886;6.468;2022-10-17T03:38:00;7.03;;;4.70;;
27305;SDS011;14792;50.886;6.468;2022-10-17T03:41:02;8.33;;;4.95;;
27305;SDS011;14792;50.886;6.468;2022-10-17T03:44:03;14.58;;;5.03;;
27305;SDS011;14792;50.886;6.468;2022-10-17T03:47:05;7.28;;;4.50;;
27305;SDS011;14792;50.886;6.468;2022-10-17T03:50:06;7.72;;;4.40;;
27305;SDS011;14792;50.886;6.468;2022-10-17T03:53:08;13.65;;;4.58;;
27305;SDS011;14792;50.886;6.468;2022-10-17T03:56:11;5.87;;;4.30;;
27305;SDS011;14792;50.886;6.468;2022-10-17T03:59:14;8.83;;;4.33;;
27305;SDS011;14792;50.886;6.468;2022-10-17T04:02:15;9.48;;;4.37;;
27305;SDS011;14792;50.886;6.468;2022-10-17T04:05:17;8.05;;;4.65;;
27305;SDS011;14792;50.886;6.468;2022-10-17T04:08:18;6.33;;;4.03;;
27305;SDS011;14792;50.886;6.468;2022-10-17T04:11:20;8.68;;;4.37;;
27305;SDS011;14792;50.886;6.468;2022-10-17T04:14:22;12.35;;;3.90;;
27305;SDS011;14792;50.886;6.468;2022-10-17T04:20:25;9.23;;;4.20;;
27305;SDS011;14792;50.886;6.468;2022-10-17T04:23:27;7.55;;;4.47;;
27305;SDS011;14792;50.886;6.468;2022-10-17T04:26:28;6.55;;;3.87;;
27305;SDS011;14792;50.886;6.468;2022-10-17T04:29:30;6.33;;;3.60;;
27305;SDS011;14792;50.886;6.468;2022-10-17T04:32:34;6.25;;;4.20;;
27305;SDS011;14792;50.886;6.468;2022-10-17T04:35:33;8.30;;;4.15;;
27305;SDS011;14792;50.886;6.468;2022-10-17T04:38:35;6.17;;;4.33;;
27305;SDS011;14792;50.886;6.468;2022-10-17T04:41:36;10.40;;;4.87;;
27305;SDS011;14792;50.886;6.468;2022-10-17T04:44:38;4.97;;;3.72;;
27305;SDS011;14792;50.886;6.468;2022-10-17T04:47:40;8.20;;;4.80;;
27305;SDS011;14792;50.886;6.468;2022-10-17T04:50:48;8.78;;;4.47;;
27305;SDS011;14792;50.886;6.468;2022-10-17T04:53:43;9.03;;;5.00;;
27305;SDS011;14792;50.886;6.468;2022-10-17T04:56:44;7.67;;;4.75;;
27305;SDS011;14792;50.886;6.468;2022-10-17T04:59:46;7.90;;;4.25;;
27305;SDS011;14792;50.886;6.468;2022-10-17T05:02:48;7.20;;;4.10;;
27305;SDS011;14792;50.886;6.468;2022-10-17T05:05:49;5.90;;;3.80;;
27305;SDS011;14792;50.886;6.468;2022-10-17T05:08:51;10.13;;;4.45;;
27305;SDS011;14792;50.886;6.468;2022-10-17T05:11:55;8.38;;;4.03;;
27305;SDS011;14792;50.886;6.468;2022-10-17T05:14:57;7.53;;;3.75;;
27305;SDS011;14792;50.886;6.468;2022-10-17T05:17:59;6.75;;;4.20;;
27305;SDS011;14792;50.886;6.468;2022-10-17T05:21:02;8.93;;;4.17;;
27305;SDS011;14792;50.886;6.468;2022-10-17T05:24:05;10.63;;;5.05;;
27305;SDS011;14792;50.886;6.468;2022-10-17T05:27:06;7.72;;;4.80;;
27305;SDS011;14792;50.886;6.468;2022-10-17T05:30:08;9.78;;;4.87;;
27305;SDS011;14792;50.886;6.468;2022-10-17T05:33:09;9.13;;;4.87;;
27305;SDS011;14792;50.886;6.468;2022-10-17T05:36:11;7.03;;;4.33;;
27305;SDS011;14792;50.886;6.468;2022-10-17T05:39:13;9.85;;;4.65;;
27305;SDS011;14792;50.886;6.468;2022-10-17T05:42:14;8.53;;;4.62;;
27305;SDS011;14792;50.886;6.468;2022-10-17T05:45:16;8.20;;;5.00;;
27305;SDS011;14792;50.886;6.468;2022-10-17T05:48:18;7.92;;;4.28;;
27305;SDS011;14792;50.886;6.468;2022-10-17T05:51:19;9.03;;;5.20;;
27305;SDS011;14792;50.886;6.468;2022-10-17T05:54:21;5.45;;;4.17;;
27305;SDS011;14792;50.886;6.468;2022-10-17T05:57:25;10.18;;;5.10;;
27305;SDS011;14792;50.886;6.468;2022-10-17T06:00:27;13.10;;;5.12;;
27305;SDS011;14792;50.886;6.468;2022-10-17T06:03:28;9.13;;;4.97;;
27305;SDS011;14792;50.886;6.468;2022-10-17T06:06:30;14.80;;;5.12;;
27305;SDS011;14792;50.886;6.468;2022-10-17T06:09:31;14.38;;;5.42;;
27305;SDS011;14792;50.886;6.468;2022-10-17T06:12:33;10.25;;;5.50;;
27305;SDS011;14792;50.886;6.468;2022-10-17T06:15:35;10.28;;;5.75;;
27305;SDS011;14792;50.886;6.468;2022-10-17T06:18:36;12.98;;;5.10;;
27305;SDS011;14792;50.886;6.468;2022-10-17T06:21:38;16.17;;;5.55;;
27305;SDS011;14792;50.886;6.468;2022-10-17T06:24:40;9.55;;;5.47;;
27305;SDS011;14792;50.886;6.468;2022-10-17T06:30:43;11.28;;;5.42;;
27305;SDS011;14792;50.886;6.468;2022-10-17T06:33:44;14.55;;;5.33;;
27305;SDS011;14792;50.886;6.468;2022-10-17T06:36:46;13.50;;;4.87;;
27305;SDS011;14792;50.886;6.468;2022-10-17T06:39:48;9.93;;;4.78;;
27305;SDS011;14792;50.886;6.468;2022-10-17T06:42:49;10.35;;;5.30;;
27305;SDS011;14792;50.886;6.468;2022-10-17T06:45:51;12.33;;;5.47;;
27305;SDS011;14792;50.886;6.468;2022-10-17T06:48:53;7.25;;;4.58;;
27305;SDS011;14792;50.886;6.468;2022-10-17T06:51:56;13.90;;;6.15;;
27305;SDS011;14792;50.886;6.468;2022-10-17T06:54:57;10.68;;;4.92;;
27305;SDS011;14792;50.886;6.468;2022-10-17T06:57:59;14.75;;;5.67;;
27305;SDS011;14792;50.886;6.468;2022-10-17T07:01:02;12.50;;;4.58;;
27305;SDS011;14792;50.886;6.468;2022-10-17T07:04:02;9.53;;;5.10;;
27305;SDS011;14792;50.886;6.468;2022-10-17T07:07:04;11.08;;;5.10;;
27305;SDS011;14792;50.886;6.468;2022-10-17T07:10:05;9.28;;;4.33;;
27305;SDS011;14792;50.886;6.468;2022-10-17T07:13:10;9.50;;;4.95;;
27305;SDS011;14792;50.886;6.468;2022-10-17T07:16:12;10.23;;;5.42;;
27305;SDS011;14792;50.886;6.468;2022-10-17T07:19:13;10.95;;;4.53;;
27305;SDS011;14792;50.886;6.468;2022-10-17T07:22:15;9.73;;;4.70;;
27305;SDS011;14792;50.886;6.468;2022-10-17T07:25:16;10.93;;;4.35;;
27305;SDS011;14792;50.886;6.468;2022-10-17T07:28:18;12.33;;;4.90;;
27305;SDS011;14792;50.886;6.468;2022-10-17T07:31:20;14.38;;;4.60;;
27305;SDS011;14792;50.886;6.468;2022-10-17T07:34:21;13.90;;;4.53;;
27305;SDS011;14792;50.886;6.468;2022-10-17T07:37:23;15.08;;;4.67;;
27305;SDS011;14792;50.886;6.468;2022-10-17T07:40:25;8.38;;;4.12;;
27305;SDS011;14792;50.886;6.468;2022-10-17T07:43:26;14.15;;;4.33;;
27305;SDS011;14792;50.886;6.468;2022-10-17T07:46:28;10.72;;;4.00;;
27305;SDS011;14792;50.886;6.468;2022-10-17T07:49:30;8.48;;;3.35;;
27305;SDS011;14792;50.886;6.468;2022-10-17T07:52:31;10.05;;;3.80;;
27305;SDS011;14792;50.886;6.468;2022-10-17T07:55:33;11.70;;;4.20;;
27305;SDS011;14792;50.886;6.468;2022-10-17T07:58:35;14.15;;;3.75;;
27305;SDS011;14792;50.886;6.468;2022-10-17T08:01:36;20.17;;;4.20;;
27305;SDS011;14792;50.886;6.468;2022-10-17T08:04:38;14.68;;;4.03;;
27305;SDS011;14792;50.886;6.468;2022-10-17T08:07:39;15.25;;;5.20;;
27305;SDS011;14792;50.886;6.468;2022-10-17T08:10:41;8.60;;;4.60;;
27305;SDS011;14792;50.886;6.468;2022-10-17T08:13:43;16.30;;;5.58;;
27305;SDS011;14792;50.886;6.468;2022-10-17T08:16:44;9.78;;;4.90;;
27305;SDS011;14792;50.886;6.468;2022-10-17T08:19:46;10.50;;;4.10;;
27305;SDS011;14792;50.886;6.468;2022-10-17T08:22:51;10.28;;;4.78;;
27305;SDS011;14792;50.886;6.468;2022-10-17T08:25:52;11.15;;;4.15;;
27305;SDS011;14792;50.886;6.468;2022-10-17T08:28:54;13.40;;;4.30;;
27305;SDS011;14792;50.886;6.468;2022-10-17T08:31:56;6.42;;;3.47;;
27305;SDS011;14792;50.886;6.468;2022-10-17T08:34:58;9.90;;;3.98;;
27305;SDS011;14792;50.886;6.468;2022-10-17T08:37:59;14.28;;;3.35;;
27305;SDS011;14792;50.886;6.468;2022-10-17T08:41:12;11.12;;;3.60;;
27305;SDS011;14792;50.886;6.468;2022-10-17T08:44:14;12.93;;;4.20;;
27305;SDS011;14792;50.886;6.468;2022-10-17T08:47:28;8.25;;;4.58;;
27305;SDS011;14792;50.886;6.468;2022-10-17T08:50:41;6.53;;;3.65;;
27305;SDS011;14792;50.886;6.468;2022-10-17T08:56:57;10.05;;;3.70;;
27305;SDS011;14792;50.886;6.468;2022-10-17T08:59:59;11.35;;;4.00;;
27305;SDS011;14792;50.886;6.468;2022-10-17T09:06:18;6.60;;;3.30;;
27305;SDS011;14792;50.886;6.468;2022-10-17T09:19:14;8.80;;;3.15;;
27305;SDS011;14792;50.886;6.468;2022-10-17T09:22:15;8.58;;;3.00;;
27305;SDS011;14792;50.886;6.468;2022-10-17T09:25:17;7.22;;;3.22;;
27305;SDS011;14792;50.886;6.468;2022-10-17T09:28:20;7.08;;;2.90;;
27305;SDS011;14792;50.886;6.468;2022-10-17T09:31:44;10.45;;;2.80;;
27305;SDS011;14792;50.886;6.468;2022-10-17T09:34:34;7.80;;;3.10;;
27305;SDS011;14792;50.886;6.468;2022-10-17T09:37:35;5.10;;;2.37;;
27305;SDS011;14792;50.886;6.468;2022-10-17T09:40:37;6.42;;;2.80;;
27305;SDS011;14792;50.886;6.468;2022-10-17T09:43:39;4.62;;;2.95;;
27305;SDS011;14792;50.886;6.468;2022-10-17T09:46:40;11.33;;;2.87;;
27305;SDS011;14792;50.886;6.468;2022-10-17T09:49:44;8.28;;;3.10;;
27305;SDS011;14792;50.886;6.468;2022-10-17T09:52:44;8.68;;;2.77;;
27305;SDS011;14792;50.886;6.468;2022-10-17T09:55:46;7.95;;;3.33;;
27305;SDS011;14792;50.886;6.468;2022-10-17T09:58:48;7.87;;;2.98;;
27305;SDS011;14792;50.886;6.468;2022-10-17T10:01:48;6.85;;;2.75;;
27305;SDS011;14792;50.886;6.468;2022-10-17T10:05:00;8.40;;;2.98;;
27305;SDS011;14792;50.886;6.468;2022-10-17T10:08:02;8.38;;;3.00;;
27305;SDS011;14792;50.886;6.468;2022-10-17T10:11:04;8.08;;;2.87;;
27305;SDS011;14792;50.886;6.468;2022-10-17T10:14:10;9.70;;;2.85;;
27305;SDS011;14792;50.886;6.468;2022-10-17T10:17:23;6.28;;;2.60;;
27305;SDS011;14792;50.886;6.468;2022-10-17T10:20:28;8.90;;;2.95;;
27305;SDS011;14792;50.886;6.468;2022-10-17T10:23:25;8.85;;;3.00;;
27305;SDS011;14792;50.886;6.468;2022-10-17T10:26:29;8.88;;;3.00;;
27305;SDS011;14792;50.886;6.468;2022-10-17T10:29:41;7.35;;;2.55;;
27305;SDS011;14792;50.886;6.468;2022-10-17T10:32:50;9.05;;;2.67;;
27305;SDS011;14792;50.886;6.468;2022-10-17T10:35:57;7.35;;;2.70;;
27305;SDS011;14792;50.886;6.468;2022-10-17T10:38:57;7.62;;;2.80;;
27305;SDS011;14792;50.886;6.468;2022-10-17T10:42:03;9.93;;;3.12;;
27305;SDS011;14792;50.886;6.468;2022-10-17T10:45:14;7.30;;;3.12;;
27305;SDS011;14792;50.886;6.468;2022-10-17T10:48:15;8.18;;;3.12;;
27305;SDS011;14792;50.886;6.468;2022-10-17T10:51:44;12.47;;;4.70;;
27305;SDS011;14792;50.886;6.468;2022-10-17T10:54:27;8.70;;;4.12;;
27305;SDS011;14792;50.886;6.468;2022-10-17T10:57:29;6.92;;;2.80;;
27305;SDS011;14792;50.886;6.468;2022-10-17T11:00:31;6.92;;;2.80;;
27305;SDS011;14792;50.886;6.468;2022-10-17T11:03:35;5.90;;;2.90;;
27305;SDS011;14792;50.886;6.468;2022-10-17T11:06:43;9.90;;;3.37;;
27305;SDS011;14792;50.886;6.468;2022-10-17T11:13:18;4.92;;;2.77;;
27305;SDS011;14792;50.886;6.468;2022-10-17T11:16:31;9.30;;;2.98;;
27305;SDS011;14792;50.886;6.468;2022-10-17T11:19:43;10.23;;;3.15;;
27305;SDS011;14792;50.886;6.468;2022-10-17T11:22:47;7.50;;;2.90;;
27305;SDS011;14792;50.886;6.468;2022-10-17T11:25:49;10.63;;;3.70;;
27305;SDS011;14792;50.886;6.468;2022-10-17T11:28:49;8.75;;;2.90;;
27305;SDS011;14792;50.886;6.468;2022-10-17T11:31:51;8.98;;;3.65;;
27305;SDS011;14792;50.886;6.468;2022-10-17T11:34:54;9.50;;;3.62;;
27305;SDS011;14792;50.886;6.468;2022-10-17T11:44:38;9.98;;;3.50;;
27305;SDS011;14792;50.886;6.468;2022-10-17T11:47:45;7.58;;;3.30;;
27305;SDS011;14792;50.886;6.468;2022-10-17T11:50:48;5.22;;;2.85;;
27305;SDS011;14792;50.886;6.468;2022-10-17T11:54:00;9.43;;;3.27;;
27305;SDS011;14792;50.886;6.468;2022-10-17T12:07:19;10.50;;;3.37;;
27305;SDS011;14792;50.886;6.468;2022-10-17T12:10:42;6.83;;;2.45;;
27305;SDS011;14792;50.886;6.468;2022-10-17T12:13:46;9.50;;;2.95;;
27305;SDS011;14792;50.886;6.468;2022-10-17T12:16:47;8.88;;;3.08;;
27305;SDS011;14792;50.886;6.468;2022-10-17T12:19:49;13.95;;;2.77;;
27305;SDS011;14792;50.886;6.468;2022-10-17T12:22:52;9.63;;;2.83;;
27305;SDS011;14792;50.886;6.468;2022-10-17T12:26:05;9.10;;;2.75;;
27305;SDS011;14792;50.886;6.468;2022-10-17T12:29:15;10.80;;;3.17;;
27305;SDS011;14792;50.886;6.468;2022-10-17T12:32:11;9.48;;;2.45;;
27305;SDS011;14792;50.886;6.468;2022-10-17T12:35:13;7.53;;;2.83;;
27305;SDS011;14792;50.886;6.468;2022-10-17T12:38:16;10.60;;;3.27;;
27305;SDS011;14792;50.886;6.468;2022-10-17T12:41:15;14.40;;;3.20;;
27305;SDS011;14792;50.886;6.468;2022-10-17T12:47:26;8.58;;;2.72;;
27305;SDS011;14792;50.886;6.468;2022-10-17T12:54:07;11.33;;;3.08;;
27305;SDS011;14792;50.886;6.468;2022-10-17T12:57:18;10.80;;;3.08;;
27305;SDS011;14792;50.886;6.468;2022-10-17T13:00:30;9.23;;;2.20;;
27305;SDS011;14792;50.886;6.468;2022-10-17T13:03:45;10.35;;;2.55;;
27305;SDS011;14792;50.886;6.468;2022-10-17T13:06:53;8.78;;;2.15;;
27305;SDS011;14792;50.886;6.468;2022-10-17T13:09:54;8.20;;;2.05;;
27305;SDS011;14792;50.886;6.468;2022-10-17T13:12:59;8.13;;;2.02;;
27305;SDS011;14792;50.886;6.468;2022-10-17T13:15:58;9.40;;;2.52;;
27305;SDS011;14792;50.886;6.468;2022-10-17T13:19:00;11.53;;;1.75;;
27305;SDS011;14792;50.886;6.468;2022-10-17T13:22:02;8.40;;;2.35;;
27305;SDS011;14792;50.886;6.468;2022-10-17T13:28:38;8.65;;;2.17;;
27305;SDS011;14792;50.886;6.468;2022-10-17T13:31:40;7.30;;;2.17;;
27305;SDS011;14792;50.886;6.468;2022-10-17T13:34:41;5.25;;;2.17;;
27305;SDS011;14792;50.886;6.468;2022-10-17T13:37:44;8.80;;;2.75;;
27305;SDS011;14792;50.886;6.468;2022-10-17T13:40:44;6.00;;;2.58;;
27305;SDS011;14792;50.886;6.468;2022-10-17T13:43:46;7.45;;;2.72;;
27305;SDS011;14792;50.886;6.468;2022-10-17T13:46:48;7.12;;;2.25;;
27305;SDS011;14792;50.886;6.468;2022-10-17T13:49:49;12.28;;;2.62;;
27305;SDS011;14792;50.886;6.468;2022-10-17T13:56:20;5.72;;;2.05;;
27305;SDS011;14792;50.886;6.468;2022-10-17T13:59:21;11.10;;;2.67;;
27305;SDS011;14792;50.886;6.468;2022-10-17T14:02:23;7.58;;;2.65;;
27305;SDS011;14792;50.886;6.468;2022-10-17T14:05:30;5.65;;;2.08;;
27305;SDS011;14792;50.886;6.468;2022-10-17T14:08:32;8.55;;;2.40;;
27305;SDS011;14792;50.886;6.468;2022-10-17T14:11:35;13.05;;;2.52;;
27305;SDS011;14792;50.886;6.468;2022-10-17T14:14:35;7.25;;;2.33;;
27305;SDS011;14792;50.886;6.468;2022-10-17T14:17:36;8.68;;;2.60;;
27305;SDS011;14792;50.886;6.468;2022-10-17T14:20:38;7.42;;;2.70;;
27305;SDS011;14792;50.886;6.468;2022-10-17T14:23:43;9.00;;;2.50;;
27305;SDS011;14792;50.886;6.468;2022-10-17T14:26:48;6.08;;;2.27;;
27305;SDS011;14792;50.886;6.468;2022-10-17T14:29:52;8.20;;;2.50;;
27305;SDS011;14792;50.886;6.468;2022-10-17T14:32:58;9.58;;;2.65;;
27305;SDS011;14792;50.886;6.468;2022-10-17T14:36:00;9.75;;;3.00;;
27305;SDS011;14792;50.886;6.468;2022-10-17T14:39:01;12.95;;;2.90;;
27305;SDS011;14792;50.886;6.468;2022-10-17T14:42:02;8.18;;;2.98;;
27305;SDS011;14792;50.886;6.468;2022-10-17T14:45:05;6.47;;;2.75;;
27305;SDS011;14792;50.886;6.468;2022-10-17T14:48:10;10.08;;;3.12;;
27305;SDS011;14792;50.886;6.468;2022-10-17T14:51:11;9.48;;;2.92;;
27305;SDS011;14792;50.886;6.468;2022-10-17T14:57:40;9.40;;;2.95;;
27305;SDS011;14792;50.886;6.468;2022-10-17T15:00:40;11.35;;;3.33;;
27305;SDS011;14792;50.886;6.468;2022-10-17T15:03:41;9.18;;;2.90;;
27305;SDS011;14792;50.886;6.468;2022-10-17T15:06:43;8.38;;;2.87;;
27305;SDS011;14792;50.886;6.468;2022-10-17T15:09:46;10.32;;;2.83;;
27305;SDS011;14792;50.886;6.468;2022-10-17T15:12:46;10.03;;;3.17;;
27305;SDS011;14792;50.886;6.468;2022-10-17T15:15:48;7.15;;;2.70;;
27305;SDS011;14792;50.886;6.468;2022-10-17T15:18:50;11.33;;;3.12;;
27305;SDS011;14792;50.886;6.468;2022-10-17T15:21:51;8.00;;;2.75;;
27305;SDS011;14792;50.886;6.468;2022-10-17T15:24:54;9.88;;;3.10;;
27305;SDS011;14792;50.886;6.468;2022-10-17T15:27:56;8.45;;;3.05;;
27305;SDS011;14792;50.886;6.468;2022-10-17T15:30:58;7.35;;;3.10;;
27305;SDS011;14792;50.886;6.468;2022-10-17T15:33:59;8.78;;;2.90;;
27305;SDS011;14792;50.886;6.468;2022-10-17T15:37:01;12.20;;;3.87;;
27305;SDS011;14792;50.886;6.468;2022-10-17T15:40:02;10.95;;;3.72;;
27305;SDS011;14792;50.886;6.468;2022-10-17T15:43:04;8.33;;;3.75;;
27305;SDS011;14792;50.886;6.468;2022-10-17T15:46:13;12.40;;;5.20;;
27305;SDS011;14792;50.886;6.468;2022-10-17T15:49:13;16.17;;;5.20;;
27305;SDS011;14792;50.886;6.468;2022-10-17T15:52:15;13.03;;;5.72;;
27305;SDS011;14792;50.886;6.468;2022-10-17T15:55:17;14.45;;;5.92;;
27305;SDS011;14792;50.886;6.468;2022-10-17T15:58:19;15.00;;;6.08;;
27305;SDS011;14792;50.886;6.468;2022-10-17T16:01:21;14.10;;;6.37;;
27305;SDS011;14792;50.886;6.468;2022-10-17T16:04:22;14.45;;;7.00;;
27305;SDS011;14792;50.886;6.468;2022-10-17T16:07:24;17.17;;;6.78;;
27305;SDS011;14792;50.886;6.468;2022-10-17T16:10:26;13.98;;;7.03;;
27305;SDS011;14792;50.886;6.468;2022-10-17T16:13:27;13.15;;;6.70;;
27305;SDS011;14792;50.886;6.468;2022-10-17T16:16:29;14.38;;;7.10;;
27305;SDS011;14792;50.886;6.468;2022-10-17T16:19:30;16.02;;;7.87;;
27305;SDS011;14792;50.886;6.468;2022-10-17T16:22:32;17.92;;;7.53;;
27305;SDS011;14792;50.886;6.468;2022-10-17T16:25:33;14.53;;;7.50;;
27305;SDS011;14792;50.886;6.468;2022-10-17T16:28:35;14.43;;;9.53;;
27305;SDS011;14792;50.886;6.468;2022-10-17T16:31:38;13.83;;;7.60;;
27305;SDS011;14792;50.886;6.468;2022-10-17T16:34:38;17.87;;;8.15;;
27305;SDS011;14792;50.886;6.468;2022-10-17T16:37:40;13.40;;;8.88;;
27305;SDS011;14792;50.886;6.468;2022-10-17T16:40:42;13.72;;;7.58;;
27305;SDS011;14792;50.886;6.468;2022-10-17T16:43:45;14.35;;;8.00;;
27305;SDS011;14792;50.886;6.468;2022-10-17T16:46:46;12.98;;;8.33;;
27305;SDS011;14792;50.886;6.468;2022-10-17T16:49:48;14.93;;;8.68;;
27305;SDS011;14792;50.886;6.468;2022-10-17T16:52:49;20.25;;;9.25;;
27305;SDS011;14792;50.886;6.468;2022-10-17T16:56:00;12.15;;;9.00;;
27305;SDS011;14792;50.886;6.468;2022-10-17T16:59:01;13.43;;;9.23;;
27305;SDS011;14792;50.886;6.468;2022-10-17T17:02:03;16.82;;;8.73;;
27305;SDS011;14792;50.886;6.468;2022-10-17T17:05:05;18.05;;;9.25;;
27305;SDS011;14792;50.886;6.468;2022-10-17T17:08:06;16.82;;;8.55;;
27305;SDS011;14792;50.886;6.468;2022-10-17T17:11:08;13.22;;;8.40;;
27305;SDS011;14792;50.886;6.468;2022-10-17T17:14:10;17.37;;;9.80;;
27305;SDS011;14792;50.886;6.468;2022-10-17T17:17:11;16.10;;;9.28;;
27305;SDS011;14792;50.886;6.468;2022-10-17T17:20:13;17.07;;;8.85;;
27305;SDS011;14792;50.886;6.468;2022-10-17T17:23:14;13.70;;;9.48;;
27305;SDS011;14792;50.886;6.468;2022-10-17T17:26:18;16.97;;;10.25;;
27305;SDS011;14792;50.886;6.468;2022-10-17T17:29:18;13.60;;;8.63;;
27305;SDS011;14792;50.886;6.468;2022-10-17T17:32:19;15.50;;;8.30;;
27305;SDS011;14792;50.886;6.468;2022-10-17T17:35:21;15.50;;;7.78;;
27305;SDS011;14792;50.886;6.468;2022-10-17T17:38:22;13.05;;;7.80;;
27305;SDS011;14792;50.886;6.468;2022-10-17T17:41:24;9.73;;;7.58;;
27305;SDS011;14792;50.886;6.468;2022-10-17T17:44:26;13.50;;;7.55;;
27305;SDS011;14792;50.886;6.468;2022-10-17T17:47:28;16.07;;;9.23;;
27305;SDS011;14792;50.886;6.468;2022-10-17T17:50:29;17.15;;;8.08;;
27305;SDS011;14792;50.886;6.468;2022-10-17T17:53:31;12.68;;;7.55;;
27305;SDS011;14792;50.886;6.468;2022-10-17T17:56:32;9.60;;;6.85;;
27305;SDS011;14792;50.886;6.468;2022-10-17T17:59:34;11.18;;;6.78;;
27305;SDS011;14792;50.886;6.468;2022-10-17T18:02:36;11.83;;;5.67;;
27305;SDS011;14792;50.886;6.468;2022-10-17T18:05:38;13.70;;;4.87;;
27305;SDS011;14792;50.886;6.468;2022-10-17T18:08:39;10.95;;;4.65;;
27305;SDS011;14792;50.886;6.468;2022-10-17T18:11:40;8.85;;;4.50;;
27305;SDS011;14792;50.886;6.468;2022-10-17T18:14:42;7.25;;;3.80;;
27305;SDS011;14792;50.886;6.468;2022-10-17T18:17:44;8.35;;;4.00;;
27305;SDS011;14792;50.886;6.468;2022-10-17T18:20:45;10.85;;;3.98;;
27305;SDS011;14792;50.886;6.468;2022-10-17T18:23:47;8.18;;;5.10;;
27305;SDS011;14792;50.886;6.468;2022-10-17T18:26:48;10.48;;;4.03;;
27305;SDS011;14792;50.886;6.468;2022-10-17T18:29:50;7.72;;;3.60;;
27305;SDS011;14792;50.886;6.468;2022-10-17T18:32:53;8.90;;;4.40;;
27305;SDS011;14792;50.886;6.468;2022-10-17T18:35:55;14.87;;;4.25;;
27305;SDS011;14792;50.886;6.468;2022-10-17T18:38:57;9.30;;;3.20;;
27305;SDS011;14792;50.886;6.468;2022-10-17T18:41:58;7.00;;;3.15;;
27305;SDS011;14792;50.886;6.468;2022-10-17T18:45:00;7.03;;;2.40;;
27305;SDS011;14792;50.886;6.468;2022-10-17T18:48:02;4.42;;;2.37;;
27305;SDS011;14792;50.886;6.468;2022-10-17T18:51:03;5.92;;;2.08;;
27305;SDS011;14792;50.886;6.468;2022-10-17T18:54:06;4.47;;;2.50;;
27305;SDS011;14792;50.886;6.468;2022-10-17T18:57:07;3.45;;;2.70;;
27305;SDS011;14792;50.886;6.468;2022-10-17T19:00:08;5.83;;;3.30;;
27305;SDS011;14792;50.886;6.468;2022-10-17T19:03:10;4.70;;;3.20;;
27305;SDS011;14792;50.886;6.468;2022-10-17T19:06:12;6.65;;;3.22;;
27305;SDS011;14792;50.886;6.468;2022-10-17T19:09:13;6.42;;;3.75;;
27305;SDS011;14792;50.886;6.468;2022-10-17T19:12:15;6.92;;;4.30;;
27305;SDS011;14792;50.886;6.468;2022-10-17T19:15:16;5.55;;;3.80;;
27305;SDS011;14792;50.886;6.468;2022-10-17T19:18:18;4.87;;;3.17;;
27305;SDS011;14792;50.886;6.468;2022-10-17T19:21:19;6.08;;;3.02;;
27305;SDS011;14792;50.886;6.468;2022-10-17T19:24:22;3.50;;;2.67;;
27305;SDS011;14792;50.886;6.468;2022-10-17T19:27:24;5.87;;;3.40;;
27305;SDS011;14792;50.886;6.468;2022-10-17T19:30:26;5.55;;;3.12;;
27305;SDS011;14792;50.886;6.468;2022-10-17T19:33:27;6.50;;;3.40;;
27305;SDS011;14792;50.886;6.468;2022-10-17T19:36:30;5.00;;;3.80;;
27305;SDS011;14792;50.886;6.468;2022-10-17T19:39:31;5.35;;;3.42;;